sensor_id;sensor_type;location;lat;lon;timestamp;P1;durP1;ratioP1;P2;durP2;ratioP2
51602;SDS011;37954;51.980;5.850;2022-11-13T00:02:22;12.20;;;7.07;;
51602;SDS011;37954;51.980;5.850;2022-11-13T00:06:52;7.87;;;6.43;;
51602;SDS011;37954;51.980;5.850;2022-11-13T00:11:28;8.17;;;6.50;;
51602;SDS011;37954;51.980;5.850;2022-11-13T00:16:02;10.13;;;6.07;;
51602;SDS011;37954;51.980;5.850;2022-11-13T00:20:34;7.90;;;5.90;;
51602;SDS011;37954;51.980;5.850;2022-11-13T00:25:04;6.70;;;5.27;;
51602;SDS011;37954;51.980;5.850;2022-11-13T00:29:35;6.07;;;5.10;;
51602;SDS011;37954;51.980;5.850;2022-11-13T00:34:04;7.23;;;5.67;;
51602;SDS011;37954;51.980;5.850;2022-11-13T00:38:55;7.17;;;5.47;;
51602;SDS011;37954;51.980;5.850;2022-11-13T00:43:26;10.40;;;5.23;;
51602;SDS011;37954;51.980;5.850;2022-11-13T00:47:56;6.87;;;5.00;;
51602;SDS011;37954;51.980;5.850;2022-11-13T00:52:26;4.57;;;4.10;;
51602;SDS011;37954;51.980;5.850;2022-11-13T00:56:56;5.13;;;4.13;;
51602;SDS011;37954;51.980;5.850;2022-11-13T01:01:26;4.60;;;4.20;;
51602;SDS011;37954;51.980;5.850;2022-11-13T01:05:56;6.10;;;4.30;;
51602;SDS011;37954;51.980;5.850;2022-11-13T01:10:27;4.90;;;4.07;;
51602;SDS011;37954;51.980;5.850;2022-11-13T01:14:57;5.20;;;4.13;;
51602;SDS011;37954;51.980;5.850;2022-11-13T01:19:27;4.47;;;4.07;;
51602;SDS011;37954;51.980;5.850;2022-11-13T01:23:57;5.30;;;4.57;;
51602;SDS011;37954;51.980;5.850;2022-11-13T01:28:27;5.50;;;4.10;;
51602;SDS011;37954;51.980;5.850;2022-11-13T01:32:57;4.67;;;4.13;;
51602;SDS011;37954;51.980;5.850;2022-11-13T01:37:28;5.03;;;4.10;;
51602;SDS011;37954;51.980;5.850;2022-11-13T01:41:57;4.90;;;4.40;;
51602;SDS011;37954;51.980;5.850;2022-11-13T01:46:30;6.70;;;4.90;;
51602;SDS011;37954;51.980;5.850;2022-11-13T01:51:02;5.97;;;4.40;;
51602;SDS011;37954;51.980;5.850;2022-11-13T01:55:37;5.87;;;4.97;;
51602;SDS011;37954;51.980;5.850;2022-11-13T02:00:08;6.57;;;4.63;;
51602;SDS011;37954;51.980;5.850;2022-11-13T02:04:40;6.33;;;4.60;;
51602;SDS011;37954;51.980;5.850;2022-11-13T02:09:11;7.73;;;5.07;;
51602;SDS011;37954;51.980;5.850;2022-11-13T02:13:42;6.97;;;4.50;;
51602;SDS011;37954;51.980;5.850;2022-11-13T02:18:13;4.67;;;4.10;;
51602;SDS011;37954;51.980;5.850;2022-11-13T02:22:51;4.63;;;4.17;;
51602;SDS011;37954;51.980;5.850;2022-11-13T02:27:33;5.47;;;4.00;;
51602;SDS011;37954;51.980;5.850;2022-11-13T02:32:06;6.43;;;4.73;;
51602;SDS011;37954;51.980;5.850;2022-11-13T02:36:37;7.13;;;6.00;;
51602;SDS011;37954;51.980;5.850;2022-11-13T02:41:06;9.70;;;4.97;;
51602;SDS011;37954;51.980;5.850;2022-11-13T02:45:36;9.67;;;5.27;;
51602;SDS011;37954;51.980;5.850;2022-11-13T02:50:09;6.67;;;5.30;;
51602;SDS011;37954;51.980;5.850;2022-11-13T02:54:40;6.13;;;5.20;;
51602;SDS011;37954;51.980;5.850;2022-11-13T02:59:10;8.50;;;5.73;;
51602;SDS011;37954;51.980;5.850;2022-11-13T03:03:40;7.23;;;5.57;;
51602;SDS011;37954;51.980;5.850;2022-11-13T03:08:26;7.40;;;5.47;;
51602;SDS011;37954;51.980;5.850;2022-11-13T03:12:57;6.07;;;4.93;;
51602;SDS011;37954;51.980;5.850;2022-11-13T03:17:29;8.10;;;4.90;;
51602;SDS011;37954;51.980;5.850;2022-11-13T03:22:00;6.40;;;5.17;;
51602;SDS011;37954;51.980;5.850;2022-11-13T03:26:30;7.70;;;5.17;;
51602;SDS011;37954;51.980;5.850;2022-11-13T03:31:00;7.77;;;4.93;;
51602;SDS011;37954;51.980;5.850;2022-11-13T03:35:31;6.00;;;4.73;;
51602;SDS011;37954;51.980;5.850;2022-11-13T03:40:10;7.40;;;5.37;;
51602;SDS011;37954;51.980;5.850;2022-11-13T03:44:41;7.40;;;5.27;;
51602;SDS011;37954;51.980;5.850;2022-11-13T03:49:11;6.03;;;5.43;;
51602;SDS011;37954;51.980;5.850;2022-11-13T03:53:41;6.30;;;5.57;;
51602;SDS011;37954;51.980;5.850;2022-11-13T03:58:11;8.30;;;5.47;;
51602;SDS011;37954;51.980;5.850;2022-11-13T04:02:42;7.87;;;5.43;;
51602;SDS011;37954;51.980;5.850;2022-11-13T04:07:12;7.47;;;5.90;;
51602;SDS011;37954;51.980;5.850;2022-11-13T04:11:41;6.67;;;5.83;;
51602;SDS011;37954;51.980;5.850;2022-11-13T04:16:11;7.17;;;5.90;;
51602;SDS011;37954;51.980;5.850;2022-11-13T04:20:41;7.27;;;5.80;;
51602;SDS011;37954;51.980;5.850;2022-11-13T04:25:11;7.00;;;5.97;;
51602;SDS011;37954;51.980;5.850;2022-11-13T04:29:41;6.50;;;5.67;;
51602;SDS011;37954;51.980;5.850;2022-11-13T04:34:11;5.90;;;5.13;;
51602;SDS011;37954;51.980;5.850;2022-11-13T04:38:41;10.33;;;6.00;;
51602;SDS011;37954;51.980;5.850;2022-11-13T04:43:11;8.20;;;6.37;;
51602;SDS011;37954;51.980;5.850;2022-11-13T04:47:41;7.60;;;5.70;;
51602;SDS011;37954;51.980;5.850;2022-11-13T04:52:11;6.87;;;5.50;;
51602;SDS011;37954;51.980;5.850;2022-11-13T04:56:42;7.77;;;5.27;;
51602;SDS011;37954;51.980;5.850;2022-11-13T05:01:12;7.40;;;5.40;;
51602;SDS011;37954;51.980;5.850;2022-11-13T05:05:42;6.77;;;5.57;;
51602;SDS011;37954;51.980;5.850;2022-11-13T05:10:12;6.80;;;5.77;;
51602;SDS011;37954;51.980;5.850;2022-11-13T05:14:42;6.67;;;5.57;;
51602;SDS011;37954;51.980;5.850;2022-11-13T05:19:12;6.90;;;5.63;;
51602;SDS011;37954;51.980;5.850;2022-11-13T05:23:42;10.60;;;5.73;;
51602;SDS011;37954;51.980;5.850;2022-11-13T05:28:12;7.20;;;5.70;;
51602;SDS011;37954;51.980;5.850;2022-11-13T05:32:42;6.63;;;5.47;;
51602;SDS011;37954;51.980;5.850;2022-11-13T05:37:12;6.07;;;5.47;;
51602;SDS011;37954;51.980;5.850;2022-11-13T05:41:43;8.53;;;5.57;;
51602;SDS011;37954;51.980;5.850;2022-11-13T05:46:17;7.07;;;5.40;;
51602;SDS011;37954;51.980;5.850;2022-11-13T05:50:48;7.47;;;5.00;;
51602;SDS011;37954;51.980;5.850;2022-11-13T05:55:18;6.57;;;5.00;;
51602;SDS011;37954;51.980;5.850;2022-11-13T05:59:52;6.67;;;5.73;;
51602;SDS011;37954;51.980;5.850;2022-11-13T06:04:22;5.47;;;4.93;;
51602;SDS011;37954;51.980;5.850;2022-11-13T06:08:52;8.13;;;5.57;;
51602;SDS011;37954;51.980;5.850;2022-11-13T06:13:24;8.63;;;5.93;;
51602;SDS011;37954;51.980;5.850;2022-11-13T06:17:54;9.83;;;5.80;;
51602;SDS011;37954;51.980;5.850;2022-11-13T06:22:24;7.57;;;5.83;;
51602;SDS011;37954;51.980;5.850;2022-11-13T06:26:54;8.10;;;6.13;;
51602;SDS011;37954;51.980;5.850;2022-11-13T06:31:25;5.87;;;5.30;;
51602;SDS011;37954;51.980;5.850;2022-11-13T06:36:06;6.27;;;5.20;;
51602;SDS011;37954;51.980;5.850;2022-11-13T06:40:39;6.87;;;5.00;;
51602;SDS011;37954;51.980;5.850;2022-11-13T06:45:10;5.57;;;4.80;;
51602;SDS011;37954;51.980;5.850;2022-11-13T06:49:40;4.90;;;4.40;;
51602;SDS011;37954;51.980;5.850;2022-11-13T06:54:10;5.80;;;4.70;;
51602;SDS011;37954;51.980;5.850;2022-11-13T06:58:40;6.37;;;4.80;;
51602;SDS011;37954;51.980;5.850;2022-11-13T07:03:14;5.27;;;4.70;;
51602;SDS011;37954;51.980;5.850;2022-11-13T07:07:47;5.87;;;4.73;;
51602;SDS011;37954;51.980;5.850;2022-11-13T07:12:17;5.13;;;4.57;;
51602;SDS011;37954;51.980;5.850;2022-11-13T07:16:48;6.70;;;4.33;;
51602;SDS011;37954;51.980;5.850;2022-11-13T07:21:38;5.33;;;4.80;;
51602;SDS011;37954;51.980;5.850;2022-11-13T07:26:09;5.13;;;4.50;;
51602;SDS011;37954;51.980;5.850;2022-11-13T07:30:40;6.43;;;4.37;;
51602;SDS011;37954;51.980;5.850;2022-11-13T07:35:10;6.40;;;4.57;;
51602;SDS011;37954;51.980;5.850;2022-11-13T07:39:40;6.97;;;4.90;;
51602;SDS011;37954;51.980;5.850;2022-11-13T07:44:10;5.50;;;4.53;;
51602;SDS011;37954;51.980;5.850;2022-11-13T07:49:00;6.43;;;4.90;;
51602;SDS011;37954;51.980;5.850;2022-11-13T07:53:30;6.70;;;4.60;;
51602;SDS011;37954;51.980;5.850;2022-11-13T07:58:00;6.37;;;4.70;;
51602;SDS011;37954;51.980;5.850;2022-11-13T08:02:31;5.13;;;4.63;;
51602;SDS011;37954;51.980;5.850;2022-11-13T08:07:01;5.53;;;5.03;;
51602;SDS011;37954;51.980;5.850;2022-11-13T08:11:31;6.07;;;5.13;;
51602;SDS011;37954;51.980;5.850;2022-11-13T08:16:01;6.50;;;5.03;;
51602;SDS011;37954;51.980;5.850;2022-11-13T08:20:32;5.93;;;5.00;;
51602;SDS011;37954;51.980;5.850;2022-11-13T08:25:03;7.30;;;5.43;;
51602;SDS011;37954;51.980;5.850;2022-11-13T08:29:33;7.63;;;5.37;;
51602;SDS011;37954;51.980;5.850;2022-11-13T08:34:05;6.03;;;4.38;;
51602;SDS011;37954;51.980;5.850;2022-11-13T08:38:35;5.32;;;4.68;;
51602;SDS011;37954;51.980;5.850;2022-11-13T08:43:06;15.15;;;7.60;;
51602;SDS011;37954;51.980;5.850;2022-11-13T08:47:36;7.78;;;5.82;;
51602;SDS011;37954;51.980;5.850;2022-11-13T08:52:06;6.03;;;5.32;;
51602;SDS011;37954;51.980;5.850;2022-11-13T08:56:37;7.68;;;5.22;;
51602;SDS011;37954;51.980;5.850;2022-11-13T09:01:06;7.50;;;5.03;;
51602;SDS011;37954;51.980;5.850;2022-11-13T09:05:37;5.40;;;4.80;;
51602;SDS011;37954;51.980;5.850;2022-11-13T09:10:07;5.93;;;5.30;;
51602;SDS011;37954;51.980;5.850;2022-11-13T09:14:37;6.00;;;4.65;;
51602;SDS011;37954;51.980;5.850;2022-11-13T09:19:08;6.90;;;5.00;;
51602;SDS011;37954;51.980;5.850;2022-11-13T09:23:38;5.85;;;5.25;;
51602;SDS011;37954;51.980;5.850;2022-11-13T09:28:08;5.20;;;4.65;;
51602;SDS011;37954;51.980;5.850;2022-11-13T09:32:39;7.85;;;4.82;;
51602;SDS011;37954;51.980;5.850;2022-11-13T09:37:09;7.85;;;4.90;;
51602;SDS011;37954;51.980;5.850;2022-11-13T09:41:41;5.30;;;4.80;;
51602;SDS011;37954;51.980;5.850;2022-11-13T09:50:49;5.30;;;4.80;;
51602;SDS011;37954;51.980;5.850;2022-11-13T09:55:23;7.38;;;5.05;;
51602;SDS011;37954;51.980;5.850;2022-11-13T10:14:02;6.07;;;5.30;;
51602;SDS011;37954;51.980;5.850;2022-11-13T10:18:41;6.03;;;4.90;;
51602;SDS011;37954;51.980;5.850;2022-11-13T10:23:20;5.30;;;4.47;;
51602;SDS011;37954;51.980;5.850;2022-11-13T10:27:54;5.75;;;4.60;;
51602;SDS011;37954;51.980;5.850;2022-11-13T10:32:30;5.25;;;4.72;;
51602;SDS011;37954;51.980;5.850;2022-11-13T10:37:09;5.43;;;4.25;;
51602;SDS011;37954;51.980;5.850;2022-11-13T10:41:57;6.40;;;4.63;;
51602;SDS011;37954;51.980;5.850;2022-11-13T10:46:27;6.57;;;4.68;;
51602;SDS011;37954;51.980;5.850;2022-11-13T10:51:19;9.18;;;4.25;;
51602;SDS011;37954;51.980;5.850;2022-11-13T10:55:56;5.68;;;4.53;;
51602;SDS011;37954;51.980;5.850;2022-11-13T11:00:31;6.05;;;4.20;;
51602;SDS011;37954;51.980;5.850;2022-11-13T11:05:18;7.10;;;4.32;;
51602;SDS011;37954;51.980;5.850;2022-11-13T11:09:50;5.03;;;4.35;;
51602;SDS011;37954;51.980;5.850;2022-11-13T11:14:34;4.32;;;3.92;;
51602;SDS011;37954;51.980;5.850;2022-11-13T11:19:10;4.40;;;3.95;;
51602;SDS011;37954;51.980;5.850;2022-11-13T11:23:44;4.22;;;3.88;;
51602;SDS011;37954;51.980;5.850;2022-11-13T11:28:29;8.55;;;7.10;;
51602;SDS011;37954;51.980;5.850;2022-11-13T11:33:07;5.43;;;4.30;;
51602;SDS011;37954;51.980;5.850;2022-11-13T11:37:56;4.97;;;4.05;;
51602;SDS011;37954;51.980;5.850;2022-11-13T11:42:47;3.80;;;3.40;;
51602;SDS011;37954;51.980;5.850;2022-11-13T11:47:20;4.18;;;3.78;;
51602;SDS011;37954;51.980;5.850;2022-11-13T11:56:52;5.97;;;4.18;;
51602;SDS011;37954;51.980;5.850;2022-11-13T12:06:39;6.13;;;5.15;;
51602;SDS011;37954;51.980;5.850;2022-11-13T12:16:05;7.55;;;5.55;;
51602;SDS011;37954;51.980;5.850;2022-11-13T12:35:44;4.03;;;3.42;;
51602;SDS011;37954;51.980;5.850;2022-11-13T12:45:29;11.18;;;4.20;;
51602;SDS011;37954;51.980;5.850;2022-11-13T12:50:19;3.90;;;3.45;;
51602;SDS011;37954;51.980;5.850;2022-11-13T12:55:22;4.28;;;3.67;;
51602;SDS011;37954;51.980;5.850;2022-11-13T12:59:55;4.18;;;3.42;;
51602;SDS011;37954;51.980;5.850;2022-11-13T13:19:37;4.10;;;3.63;;
51602;SDS011;37954;51.980;5.850;2022-11-13T13:24:09;5.03;;;3.45;;
51602;SDS011;37954;51.980;5.850;2022-11-13T13:28:59;4.13;;;3.75;;
51602;SDS011;37954;51.980;5.850;2022-11-13T13:33:43;3.80;;;3.08;;
51602;SDS011;37954;51.980;5.850;2022-11-13T13:38:28;4.20;;;3.80;;
51602;SDS011;37954;51.980;5.850;2022-11-13T13:47:49;4.95;;;3.70;;
51602;SDS011;37954;51.980;5.850;2022-11-13T13:52:31;7.45;;;3.92;;
51602;SDS011;37954;51.980;5.850;2022-11-13T13:57:03;6.20;;;4.20;;
51602;SDS011;37954;51.980;5.850;2022-11-13T14:01:33;3.45;;;3.10;;
51602;SDS011;37954;51.980;5.850;2022-11-13T14:06:20;4.38;;;3.47;;
51602;SDS011;37954;51.980;5.850;2022-11-13T14:10:51;3.13;;;2.83;;
51602;SDS011;37954;51.980;5.850;2022-11-13T14:15:23;3.25;;;2.78;;
51602;SDS011;37954;51.980;5.850;2022-11-13T14:20:03;3.85;;;2.55;;
51602;SDS011;37954;51.980;5.850;2022-11-13T14:24:51;7.00;;;3.50;;
51602;SDS011;37954;51.980;5.850;2022-11-13T14:34:07;6.32;;;3.97;;
51602;SDS011;37954;51.980;5.850;2022-11-13T14:38:41;5.60;;;4.45;;
51602;SDS011;37954;51.980;5.850;2022-11-13T14:43:30;6.07;;;3.75;;
51602;SDS011;37954;51.980;5.850;2022-11-13T14:52:55;3.80;;;3.40;;
51602;SDS011;37954;51.980;5.850;2022-11-13T14:57:45;3.53;;;2.50;;
51602;SDS011;37954;51.980;5.850;2022-11-13T15:02:18;4.63;;;3.08;;
51602;SDS011;37954;51.980;5.850;2022-11-13T15:06:49;2.60;;;2.05;;
51602;SDS011;37954;51.980;5.850;2022-11-13T15:11:24;5.70;;;2.10;;
51602;SDS011;37954;51.980;5.850;2022-11-13T15:15:54;4.28;;;2.00;;
51602;SDS011;37954;51.980;5.850;2022-11-13T15:20:25;2.78;;;1.88;;
51602;SDS011;37954;51.980;5.850;2022-11-13T15:24:57;2.40;;;2.20;;
51602;SDS011;37954;51.980;5.850;2022-11-13T15:29:27;4.45;;;3.05;;
51602;SDS011;37954;51.980;5.850;2022-11-13T15:33:57;5.50;;;4.82;;
51602;SDS011;37954;51.980;5.850;2022-11-13T15:38:28;4.88;;;4.30;;
51602;SDS011;37954;51.980;5.850;2022-11-13T15:42:58;10.07;;;5.00;;
51602;SDS011;37954;51.980;5.850;2022-11-13T15:47:36;9.45;;;6.10;;
51602;SDS011;37954;51.980;5.850;2022-11-13T15:52:07;9.88;;;7.43;;
51602;SDS011;37954;51.980;5.850;2022-11-13T15:56:38;14.07;;;9.73;;
51602;SDS011;37954;51.980;5.850;2022-11-13T16:01:13;10.50;;;7.30;;
51602;SDS011;37954;51.980;5.850;2022-11-13T16:05:44;17.98;;;11.20;;
51602;SDS011;37954;51.980;5.850;2022-11-13T16:10:15;38.42;;;26.42;;
51602;SDS011;37954;51.980;5.850;2022-11-13T16:14:45;15.68;;;12.23;;
51602;SDS011;37954;51.980;5.850;2022-11-13T16:19:17;8.02;;;6.72;;
51602;SDS011;37954;51.980;5.850;2022-11-13T16:23:52;11.68;;;7.50;;
51602;SDS011;37954;51.980;5.850;2022-11-13T16:28:22;7.35;;;6.45;;
51602;SDS011;37954;51.980;5.850;2022-11-13T16:32:53;12.07;;;9.05;;
51602;SDS011;37954;51.980;5.850;2022-11-13T16:37:24;5.47;;;4.75;;
51602;SDS011;37954;51.980;5.850;2022-11-13T16:41:54;9.52;;;5.45;;
51602;SDS011;37954;51.980;5.850;2022-11-13T16:46:28;8.70;;;7.57;;
51602;SDS011;37954;51.980;5.850;2022-11-13T16:51:03;7.00;;;6.03;;
51602;SDS011;37954;51.980;5.850;2022-11-13T16:55:34;7.20;;;6.20;;
51602;SDS011;37954;51.980;5.850;2022-11-13T17:00:10;9.02;;;7.30;;
51602;SDS011;37954;51.980;5.850;2022-11-13T17:04:43;17.38;;;12.18;;
51602;SDS011;37954;51.980;5.850;2022-11-13T17:09:13;9.02;;;6.63;;
51602;SDS011;37954;51.980;5.850;2022-11-13T17:13:48;36.22;;;24.92;;
51602;SDS011;37954;51.980;5.850;2022-11-13T17:18:19;44.22;;;29.65;;
51602;SDS011;37954;51.980;5.850;2022-11-13T17:22:49;18.30;;;13.65;;
51602;SDS011;37954;51.980;5.850;2022-11-13T17:27:20;15.75;;;11.80;;
51602;SDS011;37954;51.980;5.850;2022-11-13T17:31:50;14.52;;;6.97;;
51602;SDS011;37954;51.980;5.850;2022-11-13T17:36:21;13.18;;;9.73;;
51602;SDS011;37954;51.980;5.850;2022-11-13T17:40:52;13.63;;;10.38;;
51602;SDS011;37954;51.980;5.850;2022-11-13T17:45:22;41.50;;;27.08;;
51602;SDS011;37954;51.980;5.850;2022-11-13T17:49:53;19.70;;;15.32;;
51602;SDS011;37954;51.980;5.850;2022-11-13T17:54:24;12.98;;;10.02;;
51602;SDS011;37954;51.980;5.850;2022-11-13T17:58:58;11.20;;;8.20;;
51602;SDS011;37954;51.980;5.850;2022-11-13T18:03:28;7.70;;;6.18;;
51602;SDS011;37954;51.980;5.850;2022-11-13T18:07:59;9.30;;;7.03;;
51602;SDS011;37954;51.980;5.850;2022-11-13T18:12:29;6.70;;;5.82;;
51602;SDS011;37954;51.980;5.850;2022-11-13T18:17:00;6.28;;;5.35;;
51602;SDS011;37954;51.980;5.850;2022-11-13T18:21:31;9.88;;;5.75;;
51602;SDS011;37954;51.980;5.850;2022-11-13T18:26:09;6.18;;;5.57;;
51602;SDS011;37954;51.980;5.850;2022-11-13T18:30:47;4.78;;;4.15;;
51602;SDS011;37954;51.980;5.850;2022-11-13T18:35:24;8.13;;;4.93;;
51602;SDS011;37954;51.980;5.850;2022-11-13T18:39:55;4.72;;;3.97;;
51602;SDS011;37954;51.980;5.850;2022-11-13T18:44:27;5.88;;;4.40;;
51602;SDS011;37954;51.980;5.850;2022-11-13T18:48:57;6.20;;;4.53;;
51602;SDS011;37954;51.980;5.850;2022-11-13T18:53:28;6.65;;;4.07;;
51602;SDS011;37954;51.980;5.850;2022-11-13T18:58:00;4.10;;;3.78;;
51602;SDS011;37954;51.980;5.850;2022-11-13T19:02:30;4.80;;;3.65;;
51602;SDS011;37954;51.980;5.850;2022-11-13T19:07:00;8.95;;;4.13;;
51602;SDS011;37954;51.980;5.850;2022-11-13T19:11:31;7.18;;;4.53;;
51602;SDS011;37954;51.980;5.850;2022-11-13T19:16:05;4.60;;;3.83;;
51602;SDS011;37954;51.980;5.850;2022-11-13T19:20:37;6.40;;;5.20;;
51602;SDS011;37954;51.980;5.850;2022-11-13T19:25:08;6.30;;;4.90;;
51602;SDS011;37954;51.980;5.850;2022-11-13T19:29:38;11.88;;;7.60;;
51602;SDS011;37954;51.980;5.850;2022-11-13T19:34:09;10.15;;;7.57;;
51602;SDS011;37954;51.980;5.850;2022-11-13T19:38:41;8.57;;;5.47;;
51602;SDS011;37954;51.980;5.850;2022-11-13T19:43:12;6.78;;;5.45;;
51602;SDS011;37954;51.980;5.850;2022-11-13T19:47:42;7.35;;;5.10;;
51602;SDS011;37954;51.980;5.850;2022-11-13T19:52:13;11.52;;;8.30;;
51602;SDS011;37954;51.980;5.850;2022-11-13T19:56:43;4.95;;;4.45;;
51602;SDS011;37954;51.980;5.850;2022-11-13T20:01:18;8.57;;;5.18;;
51602;SDS011;37954;51.980;5.850;2022-11-13T20:05:51;6.90;;;5.68;;
51602;SDS011;37954;51.980;5.850;2022-11-13T20:10:23;6.70;;;4.90;;
51602;SDS011;37954;51.980;5.850;2022-11-13T20:14:53;8.10;;;5.43;;
51602;SDS011;37954;51.980;5.850;2022-11-13T20:19:23;6.07;;;4.72;;
51602;SDS011;37954;51.980;5.850;2022-11-13T20:23:54;5.85;;;4.55;;
51602;SDS011;37954;51.980;5.850;2022-11-13T20:28:26;4.72;;;4.22;;
51602;SDS011;37954;51.980;5.850;2022-11-13T20:32:58;6.65;;;4.65;;
51602;SDS011;37954;51.980;5.850;2022-11-13T20:37:28;9.35;;;6.10;;
51602;SDS011;37954;51.980;5.850;2022-11-13T20:41:59;7.28;;;4.75;;
51602;SDS011;37954;51.980;5.850;2022-11-13T20:46:29;7.40;;;5.57;;
51602;SDS011;37954;51.980;5.850;2022-11-13T20:51:09;6.07;;;4.65;;
51602;SDS011;37954;51.980;5.850;2022-11-13T20:55:44;8.20;;;4.68;;
51602;SDS011;37954;51.980;5.850;2022-11-13T21:00:14;6.23;;;5.00;;
51602;SDS011;37954;51.980;5.850;2022-11-13T21:04:45;7.65;;;5.35;;
51602;SDS011;37954;51.980;5.850;2022-11-13T21:09:15;6.45;;;5.28;;
51602;SDS011;37954;51.980;5.850;2022-11-13T21:13:45;4.73;;;4.27;;
51602;SDS011;37954;51.980;5.850;2022-11-13T21:18:17;6.23;;;4.93;;
51602;SDS011;37954;51.980;5.850;2022-11-13T21:22:49;5.70;;;4.40;;
51602;SDS011;37954;51.980;5.850;2022-11-13T21:27:19;5.78;;;4.75;;
51602;SDS011;37954;51.980;5.850;2022-11-13T21:31:50;6.30;;;5.10;;
51602;SDS011;37954;51.980;5.850;2022-11-13T21:36:21;7.03;;;5.45;;
51602;SDS011;37954;51.980;5.850;2022-11-13T21:40:59;6.70;;;5.43;;
51602;SDS011;37954;51.980;5.850;2022-11-13T21:45:49;7.20;;;5.57;;
51602;SDS011;37954;51.980;5.850;2022-11-13T21:50:19;7.93;;;6.07;;
51602;SDS011;37954;51.980;5.850;2022-11-13T21:54:49;7.93;;;6.10;;
51602;SDS011;37954;51.980;5.850;2022-11-13T21:59:20;6.50;;;5.20;;
51602;SDS011;37954;51.980;5.850;2022-11-13T22:03:50;7.37;;;6.40;;
51602;SDS011;37954;51.980;5.850;2022-11-13T22:08:21;7.40;;;6.00;;
51602;SDS011;37954;51.980;5.850;2022-11-13T22:12:51;7.47;;;5.97;;
51602;SDS011;37954;51.980;5.850;2022-11-13T22:17:21;7.27;;;6.47;;
51602;SDS011;37954;51.980;5.850;2022-11-13T22:21:51;10.07;;;6.73;;
51602;SDS011;37954;51.980;5.850;2022-11-13T22:26:23;6.30;;;5.70;;
51602;SDS011;37954;51.980;5.850;2022-11-13T22:30:54;8.63;;;7.10;;
51602;SDS011;37954;51.980;5.850;2022-11-13T22:35:25;10.67;;;6.57;;
51602;SDS011;37954;51.980;5.850;2022-11-13T22:39:55;7.67;;;6.23;;
51602;SDS011;37954;51.980;5.850;2022-11-13T22:44:25;10.90;;;6.40;;
51602;SDS011;37954;51.980;5.850;2022-11-13T22:49:15;7.23;;;6.47;;
51602;SDS011;37954;51.980;5.850;2022-11-13T22:53:47;8.13;;;6.53;;
51602;SDS011;37954;51.980;5.850;2022-11-13T22:58:28;8.77;;;7.40;;
51602;SDS011;37954;51.980;5.850;2022-11-13T23:02:59;12.50;;;7.30;;
51602;SDS011;37954;51.980;5.850;2022-11-13T23:07:29;10.63;;;7.67;;
51602;SDS011;37954;51.980;5.850;2022-11-13T23:11:59;11.30;;;7.97;;
51602;SDS011;37954;51.980;5.850;2022-11-13T23:16:30;9.97;;;7.60;;
51602;SDS011;37954;51.980;5.850;2022-11-13T23:21:01;11.40;;;8.20;;
51602;SDS011;37954;51.980;5.850;2022-11-13T23:25:32;11.77;;;8.67;;
51602;SDS011;37954;51.980;5.850;2022-11-13T23:30:02;13.07;;;10.23;;
51602;SDS011;37954;51.980;5.850;2022-11-13T23:34:33;15.40;;;11.43;;
51602;SDS011;37954;51.980;5.850;2022-11-13T23:39:23;16.17;;;10.17;;
51602;SDS011;37954;51.980;5.850;2022-11-13T23:43:53;14.50;;;10.70;;
51602;SDS011;37954;51.980;5.850;2022-11-13T23:48:38;17.97;;;11.80;;
51602;SDS011;37954;51.980;5.850;2022-11-13T23:53:09;15.67;;;11.43;;
51602;SDS011;37954;51.980;5.850;2022-11-13T23:57:40;15.53;;;11.00;;
